Time;durP1;ratioP1;P1;durP2;ratioP2;P2;SDS_P1;SDS_P2;PMS_P1;PMS_P2;Temp;Humidity;BMP_temperature;BMP_pressure;BME280_temperature;BME280_humidity;BME280_pressure;Samples;Min_cycle;Max_cycle;Signal;HPM_P1;HPM_P2
2022/06/11 00:01:09;;;;;;;12.93;9.57;;;;;;;17.66;100.00;94270.22;5060016;28;20185;-79
2022/06/11 00:03:35;;;;;;;20.92;12.95;;;;;;;17.46;100.00;94232.97;5072569;28;20698;-79
2022/06/11 00:06:02;;;;;;;18.13;12.35;;;;;;;17.78;100.00;94276.06;5074060;28;20253;-80
2022/06/11 00:08:27;;;;;;;13.50;10.02;;;;;;;17.87;100.00;94273.66;5074536;28;20186;-79
2022/06/11 00:10:52;;;;;;;15.55;11.05;;;;;;;17.76;100.00;94256.09;5073846;28;20232;-79
2022/06/11 00:13:22;;;;;;;14.23;11.05;;;;;;;17.73;100.00;94255.56;5078610;28;20304;-80
2022/06/11 00:15:48;;;;;;;12.25;8.90;;;;;;;17.94;100.00;94282.94;5082016;28;20669;-79
2022/06/11 00:18:13;;;;;;;12.88;8.48;;;;;;;17.89;100.00;94263.53;5071833;28;20634;-79
2022/06/11 00:20:39;;;;;;;13.15;9.52;;;;;;;17.73;100.00;94246.78;5067403;28;20202;-80
2022/06/11 00:23:04;;;;;;;9.43;7.68;;;;;;;17.85;100.00;94262.47;5073005;28;20257;-80
2022/06/11 00:25:32;;;;;;;14.15;10.18;;;;;;;17.93;100.00;94273.38;5073089;28;20170;-80
2022/06/11 00:27:59;;;;;;;18.60;12.43;;;;;;;17.67;100.00;94231.88;5073925;28;20220;-80
2022/06/11 00:30:25;;;;;;;20.77;13.63;;;;;;;17.87;100.00;94260.34;5067518;28;20179;-80
2022/06/11 00:32:50;;;;;;;14.70;10.93;;;;;;;17.98;99.73;94280.56;5073901;28;20189;-80
2022/06/11 00:35:16;;;;;;;9.38;7.38;;;;;;;17.96;98.63;94283.47;5072128;28;20185;-79
2022/06/11 00:37:42;;;;;;;9.05;7.00;;;;;;;17.96;97.56;94272.81;5076715;28;20205;-80
2022/06/11 00:40:09;;;;;;;12.82;9.25;;;;;;;17.91;97.92;94277.34;5076956;28;20249;-80
2022/06/11 00:42:35;;;;;;;12.32;8.25;;;;;;;17.92;97.92;94282.41;5071511;28;20170;-80
2022/06/11 00:45:29;;;;;;;11.90;8.20;;;;;;;17.93;98.26;94281.34;5060776;28;20613;-80
2022/06/11 00:48:00;;;;;;;9.70;7.60;;;;;;;17.91;98.70;94283.47;5057244;28;20177;-79
2022/06/11 00:50:38;;;;;;;10.60;8.13;;;;;;;17.92;98.85;94286.94;5073152;28;20170;-79
2022/06/11 00:53:12;;;;;;;13.13;9.45;;;;;;;17.75;99.66;94241.19;5073310;28;20170;-79
2022/06/11 00:55:39;;;;;;;13.48;8.93;;;;;;;17.93;100.00;94276.03;5072975;28;20315;-79
2022/06/11 00:58:09;;;;;;;10.95;7.97;;;;;;;17.93;100.00;94286.69;5072823;28;20166;-80
2022/06/11 01:00:43;;;;;;;11.27;8.70;;;;;;;17.89;100.00;94269.66;5072985;28;20198;-79
2022/06/11 01:03:12;;;;;;;13.65;8.65;;;;;;;17.92;100.00;94273.63;5065909;28;20211;-79
2022/06/11 01:05:41;;;;;;;13.85;8.32;;;;;;;17.90;100.00;94275.78;5052995;28;20174;-79
2022/06/11 01:08:40;;;;;;;9.43;7.15;;;;;;;17.90;100.00;94281.09;5053066;28;20190;-79
2022/06/11 01:11:37;;;;;;;11.73;7.97;;;;;;;17.65;100.00;94237.47;5053300;28;20638;-79
2022/06/11 01:14:45;;;;;;;12.80;7.97;;;;;;;17.94;100.00;94282.16;5035576;28;20266;-79
2022/06/11 01:17:16;;;;;;;10.75;8.25;;;;;;;17.91;100.00;94269.38;5037609;28;20182;-79
2022/06/11 01:20:02;;;;;;;13.60;9.85;;;;;;;17.91;100.00;94277.34;5052722;28;20266;-79
2022/06/11 01:22:59;;;;;;;10.60;7.90;;;;;;;17.89;99.91;94272.31;5052752;28;20175;-79
2022/06/11 01:25:24;;;;;;;15.25;9.90;;;;;;;17.86;100.00;94275.50;5052377;28;20535;-79
2022/06/11 01:28:10;;;;;;;17.20;12.50;;;;;;;17.85;100.00;94276.56;5052274;28;20212;-79
2022/06/11 01:30:48;;;;;;;18.48;13.10;;;;;;;17.85;100.00;94278.44;5034367;28;20647;-79
2022/06/11 01:33:28;;;;;;;20.33;13.88;;;;;;;17.73;100.00;94265.41;5037409;28;20208;-79
2022/06/11 01:36:11;;;;;;;11.98;9.93;;;;;;;17.82;100.00;94286.97;5072255;28;20170;-80
2022/06/11 01:39:01;;;;;;;13.52;9.65;;;;;;;17.80;100.00;94287.25;5072130;28;20186;-79
2022/06/11 01:41:26;;;;;;;18.70;12.15;;;;;;;17.78;100.00;94283.25;5072253;28;20178;-79
2022/06/11 01:43:57;;;;;;;12.80;9.68;;;;;;;17.73;100.00;94276.06;5072305;28;20227;-80
2022/06/11 01:46:27;;;;;;;17.02;11.90;;;;;;;17.82;100.00;94281.63;5072719;28;20607;-80
2022/06/11 01:49:22;;;;;;;13.82;9.70;;;;;;;17.80;100.00;94287.25;5072282;28;20174;-80
2022/06/11 01:51:58;;;;;;;11.10;8.07;;;;;;;17.62;100.00;94254.00;5062729;28;20194;-80
2022/06/11 01:54:46;;;;;;;12.48;9.35;;;;;;;17.84;100.00;94282.16;5071301;28;20174;-79
2022/06/11 01:57:52;;;;;;;12.65;9.13;;;;;;;17.83;100.00;94286.69;5072173;28;20197;-79
2022/06/11 02:00:25;;;;;;;11.90;8.77;;;;;;;17.83;100.00;94285.91;5023342;28;20719;-79
2022/06/11 02:03:12;;;;;;;19.35;11.70;;;;;;;17.88;100.00;94284.03;5072115;28;20301;-80
2022/06/11 02:06:02;;;;;;;16.30;9.82;;;;;;;17.91;100.00;94283.47;5072094;28;20241;-79
2022/06/11 02:08:43;;;;;;;12.35;9.35;;;;;;;17.85;100.00;94289.09;5072640;28;20181;-79
2022/06/11 02:11:22;;;;;;;13.20;8.35;;;;;;;17.76;100.00;94277.41;5072134;28;20178;-79
2022/06/11 02:13:56;;;;;;;16.15;11.38;;;;;;;17.59;100.00;94248.38;5072279;28;20216;-79
2022/06/11 02:16:53;;;;;;;18.00;11.38;;;;;;;17.79;100.00;94274.19;5072329;28;20666;-79
2022/06/11 02:19:24;;;;;;;14.68;10.70;;;;;;;17.75;100.00;94284.59;5064281;28;20182;-79
2022/06/11 02:22:02;;;;;;;17.25;10.25;;;;;;;17.73;100.00;94276.84;5054574;28;20237;-79
2022/06/11 02:24:34;;;;;;;12.70;9.25;;;;;;;17.76;100.00;94280.84;5072582;28;20162;-79
2022/06/11 02:27:05;;;;;;;13.50;10.02;;;;;;;17.81;100.00;94288.06;5072270;28;20258;-80
2022/06/11 02:29:33;;;;;;;14.90;10.95;;;;;;;17.68;100.00;94257.44;5072930;28;20549;-80
2022/06/11 02:32:06;;;;;;;14.13;9.90;;;;;;;17.76;100.00;94264.09;5072312;28;20167;-80
2022/06/11 02:34:32;;;;;;;13.57;9.85;;;;;;;17.77;100.00;94276.31;5073089;28;20187;-79
2022/06/11 02:37:09;;;;;;;17.45;11.45;;;;;;;17.85;100.00;94289.09;5073856;28;20553;-80
2022/06/11 02:39:38;;;;;;;13.80;9.05;;;;;;;17.84;100.00;94288.28;5055629;28;20581;-80
2022/06/11 02:42:06;;;;;;;12.60;9.30;;;;;;;17.78;100.00;94286.72;5072319;28;20177;-79
2022/06/11 02:44:31;;;;;;;10.18;7.20;;;;;;;17.49;100.00;94233.22;5072324;28;20644;-79
2022/06/11 02:46:57;;;;;;;10.18;7.35;;;;;;;17.74;99.94;94277.66;5072035;28;20237;-79
2022/06/11 02:49:29;;;;;;;9.35;6.82;;;;;;;17.80;99.72;94291.78;5072271;28;20720;-79
2022/06/11 02:51:58;;;;;;;22.77;15.27;;;;;;;17.72;100.00;94293.13;5072270;28;20151;-79
2022/06/11 02:54:25;;;;;;;8.60;6.88;;;;;;;17.42;99.76;94242.53;5071357;28;20654;-79
2022/06/11 02:56:53;;;;;;;20.33;12.80;;;;;;;17.65;100.00;94295.25;5062855;28;20174;-79
2022/06/11 02:59:20;;;;;;;17.33;9.95;;;;;;;17.59;100.00;94285.63;5053392;28;20198;-79
2022/06/11 03:01:47;;;;;;;17.95;12.95;;;;;;;17.56;100.00;94288.81;5072009;28;20243;-79
2022/06/11 03:04:14;;;;;;;13.82;9.40;;;;;;;17.35;100.00;94253.47;5071629;28;20701;-79
2022/06/11 03:06:41;;;;;;;11.18;8.27;;;;;;;17.57;100.00;94288.56;5075378;28;20174;-80
2022/06/11 03:09:07;;;;;;;12.10;7.47;;;;;;;17.64;100.00;94296.34;5075540;28;20694;-80
2022/06/11 03:11:32;;;;;;;9.02;6.47;;;;;;;17.67;100.00;94298.44;5075237;28;20588;-79
2022/06/11 03:13:59;;;;;;;11.27;7.28;;;;;;;17.65;100.00;94298.69;5074882;28;20178;-80
2022/06/11 03:16:25;;;;;;;16.13;6.97;;;;;;;17.65;100.00;94301.38;5075086;28;20167;-79
2022/06/11 03:18:51;;;;;;;13.00;6.65;;;;;;;17.66;100.00;94308.28;5075325;28;20175;-79
2022/06/11 03:21:17;;;;;;;10.48;7.38;;;;;;;17.66;100.00;94310.94;5075307;28;20182;-80
2022/06/11 03:23:43;;;;;;;12.50;6.65;;;;;;;17.62;100.00;94296.59;5075182;28;20257;-79
2022/06/11 03:26:08;;;;;;;9.85;7.07;;;;;;;17.62;100.00;94306.44;5075141;28;20630;-79
2022/06/11 03:28:34;;;;;;;11.25;7.60;;;;;;;17.68;100.00;94316.00;5074976;28;20634;-79
2022/06/11 03:31:03;;;;;;;10.60;6.90;;;;;;;17.51;100.00;94281.66;5075098;28;20174;-79
2022/06/11 03:33:29;;;;;;;10.82;8.02;;;;;;;17.73;100.00;94316.00;5055176;28;20268;-80
2022/06/11 03:35:54;;;;;;;14.63;10.15;;;;;;;17.51;100.00;94283.53;5054972;28;20634;-79
2022/06/11 03:38:21;;;;;;;21.33;14.40;;;;;;;17.74;100.00;94317.59;5070927;28;20162;-80
2022/06/11 03:40:47;;;;;;;24.88;16.45;;;;;;;17.80;100.00;94311.22;5074596;28;20191;-79
2022/06/11 03:43:13;;;;;;;14.90;10.60;;;;;;;17.84;100.00;94311.47;5074451;28;20174;-79
2022/06/11 03:45:38;;;;;;;16.90;12.35;;;;;;;17.84;100.00;94314.13;5074823;28;20172;-79
2022/06/11 03:48:05;;;;;;;16.90;11.57;;;;;;;17.77;100.00;94300.28;5074845;28;20237;-79
2022/06/11 03:50:34;;;;;;;14.43;9.95;;;;;;;17.92;100.00;94313.56;5074476;28;20238;-79
2022/06/11 03:53:00;;;;;;;13.23;9.15;;;;;;;17.95;100.00;94318.38;5074681;28;20202;-79
2022/06/11 03:55:27;;;;;;;16.25;11.23;;;;;;;18.00;100.00;94319.16;5074863;28;20580;-79
2022/06/11 03:57:53;;;;;;;18.27;11.02;;;;;;;17.98;100.00;94307.19;5074664;28;20166;-79
2022/06/11 04:01:14;;;;;;;13.70;10.18;;;;;;;18.12;100.00;94320.72;5074156;28;20194;-79
2022/06/11 04:03:09;;;;;;;12.80;9.50;;;;;;;18.14;100.00;94319.41;5074024;28;20237;-79
2022/06/11 04:05:35;;;;;;;15.15;9.25;;;;;;;18.17;100.00;94324.16;5074290;28;20174;-79
2022/06/11 04:08:00;;;;;;;13.70;9.55;;;;;;;18.04;100.00;94308.75;5074593;28;20173;-80
2022/06/11 04:10:25;;;;;;;13.52;9.18;;;;;;;18.13;100.00;94327.66;5074203;28;20676;-79
2022/06/11 04:12:52;;;;;;;12.25;8.93;;;;;;;17.98;100.00;94294.66;5073910;28;20526;-80
2022/06/11 04:15:18;;;;;;;13.20;9.15;;;;;;;17.88;100.00;94286.69;5073641;28;20178;-79
2022/06/11 04:17:44;;;;;;;11.45;8.93;;;;;;;17.96;100.00;94296.00;5072869;28;20174;-79
2022/06/11 04:20:12;;;;;;;12.57;9.18;;;;;;;18.17;100.00;94324.16;5073626;28;20198;-80
2022/06/11 04:22:38;;;;;;;14.60;9.80;;;;;;;18.17;100.00;94329.50;5073473;28;20549;-80
2022/06/11 04:25:04;;;;;;;14.30;9.70;;;;;;;18.20;100.00;94333.50;5073734;28;20203;-80
2022/06/11 04:27:29;;;;;;;13.90;9.43;;;;;;;18.09;100.00;94314.06;5073886;28;20185;-79
2022/06/11 04:29:58;;;;;;;18.65;9.63;;;;;;;18.16;100.00;94330.59;5073141;28;20162;-79
2022/06/11 04:32:27;;;;;;;13.70;8.52;;;;;;;17.99;100.00;94304.22;5073665;28;20174;-79
2022/06/11 04:34:53;;;;;;;13.80;9.75;;;;;;;17.92;100.00;94293.06;5071143;28;20170;-79
2022/06/11 04:37:22;;;;;;;13.23;9.68;;;;;;;17.94;100.00;94296.25;5073627;28;20253;-79
2022/06/11 04:39:50;;;;;;;12.07;8.70;;;;;;;18.15;100.00;94314.88;5073468;28;20234;-79
2022/06/11 04:42:16;;;;;;;8.52;6.68;;;;;;;18.00;99.39;94300.50;5073007;28;20174;-79
2022/06/11 04:44:43;;;;;;;9.38;7.28;;;;;;;18.09;99.76;94332.72;5073431;28;20177;-80
2022/06/11 04:47:10;;;;;;;9.75;6.53;;;;;;;17.73;99.54;94276.84;5073058;28;20171;-79
2022/06/11 04:49:36;;;;;;;8.32;6.22;;;;;;;18.12;98.11;94337.50;5072718;28;20154;-79
2022/06/11 04:52:03;;;;;;;8.80;6.57;;;;;;;18.11;98.21;94341.25;5072726;28;20194;-79
2022/06/11 04:54:28;;;;;;;9.48;6.72;;;;;;;17.96;98.32;94333.28;5072911;28;20201;-79
2022/06/11 04:56:54;;;;;;;8.98;6.10;;;;;;;18.10;99.06;94353.75;5073170;28;20539;-80
2022/06/11 04:59:20;;;;;;;8.57;6.07;;;;;;;18.04;98.15;94354.84;5073261;28;20285;-79
2022/06/11 05:01:46;;;;;;;7.82;5.82;;;;;;;18.02;97.94;94361.50;5073308;28;20242;-79
2022/06/11 05:04:12;;;;;;;8.82;5.78;;;;;;;18.02;98.04;94356.19;5072499;28;20325;-79
2022/06/11 05:06:42;;;;;;;9.38;6.65;;;;;;;17.97;98.39;94359.66;5072028;28;20177;-79
2022/06/11 05:09:09;;;;;;;11.45;7.65;;;;;;;17.75;99.47;94329.84;5071867;28;20171;-79
2022/06/11 05:11:35;;;;;;;15.95;11.52;;;;;;;17.67;100.00;94328.53;5052222;28;20182;-79
2022/06/11 05:14:00;;;;;;;14.63;8.68;;;;;;;17.99;100.00;94362.03;5071889;28;20185;-79
2022/06/11 05:16:26;;;;;;;12.43;8.30;;;;;;;18.00;99.31;94369.75;5072335;28;20216;-79
2022/06/11 05:18:52;;;;;;;11.35;6.72;;;;;;;17.68;99.44;94327.47;5072827;28;20537;-79
2022/06/11 05:21:19;;;;;;;14.32;9.90;;;;;;;17.88;100.00;94357.81;5072686;28;20174;-79
2022/06/11 05:23:44;;;;;;;17.73;10.20;;;;;;;17.95;100.00;94376.97;5072830;28;20171;-79
2022/06/11 05:26:17;;;;;;;21.67;12.80;;;;;;;17.68;100.00;94329.31;5072322;28;20162;-79
2022/06/11 05:28:43;;;;;;;15.70;10.20;;;;;;;18.02;100.00;94382.81;5071817;28;20182;-79
2022/06/11 05:31:08;;;;;;;13.25;9.00;;;;;;;18.05;100.00;94379.63;5054365;28;20159;-79
2022/06/11 05:33:34;;;;;;;8.77;6.28;;;;;;;18.12;100.00;94382.81;5072489;28;20166;-79
2022/06/11 05:35:59;;;;;;;9.00;6.70;;;;;;;18.22;99.60;94390.78;5071491;28;20206;-79
2022/06/11 05:38:27;;;;;;;6.72;5.45;;;;;;;18.26;98.50;94393.69;5072791;28;20159;-79
2022/06/11 05:40:54;;;;;;;6.40;5.35;;;;;;;18.31;98.50;94391.84;5073118;28;20182;-79
2022/06/11 05:43:20;;;;;;;9.77;7.40;;;;;;;18.35;98.74;94392.88;5071680;28;20600;-79
2022/06/11 05:46:10;;;;;;;10.13;7.07;;;;;;;18.34;99.12;94383.28;5071754;28;20226;-79
2022/06/11 05:48:44;;;;;;;8.00;5.60;;;;;;;18.14;99.00;94361.22;5045502;28;20201;-79
2022/06/11 05:51:16;;;;;;;7.07;6.15;;;;;;;18.50;99.50;94394.72;5071867;28;20167;-80
2022/06/11 05:53:42;;;;;;;8.65;5.95;;;;;;;18.37;98.25;94380.09;5072183;28;20174;-80
2022/06/11 05:56:10;;;;;;;8.30;5.18;;;;;;;18.37;98.21;94376.63;5071756;28;20170;-79
2022/06/11 05:58:49;;;;;;;10.40;5.68;;;;;;;18.54;98.22;94408.28;5072007;28;20261;-80
2022/06/11 06:01:17;;;;;;;8.50;6.35;;;;;;;18.56;97.67;94409.63;5070048;28;20175;-80
2022/06/11 06:03:42;;;;;;;7.65;5.95;;;;;;;18.61;97.75;94406.16;5070742;28;20371;-79
2022/06/11 06:06:08;;;;;;;7.93;5.60;;;;;;;18.27;97.20;94364.13;5071206;28;20708;-79
2022/06/11 06:08:33;;;;;;;7.70;6.00;;;;;;;18.16;98.49;94404.38;5070859;28;20174;-80
2022/06/11 06:10:58;;;;;;;7.43;5.63;;;;;;;17.84;99.88;94359.38;5071147;28;20166;-80
2022/06/11 06:16:08;;;;;;;12.70;9.23;;;;;;;18.29;99.63;94409.94;5071885;28;20640;-80
2022/06/11 06:18:34;;;;;;;8.85;6.95;;;;;;;18.32;98.65;94408.63;5070375;28;20185;-80
2022/06/11 06:20:59;;;;;;;7.85;6.15;;;;;;;18.32;98.32;94414.75;5070765;28;20194;-80
2022/06/11 06:23:25;;;;;;;11.75;7.93;;;;;;;18.34;98.51;94415.25;5053142;28;20239;-80
2022/06/11 06:25:50;;;;;;;7.60;6.13;;;;;;;18.35;98.41;94416.84;5071544;28;20170;-80
2022/06/11 06:28:16;;;;;;;13.35;8.63;;;;;;;18.17;98.24;94396.09;5071982;28;20170;-81
2022/06/11 06:30:41;;;;;;;7.05;6.10;;;;;;;18.32;98.83;94411.28;5071188;28;20167;-81
2022/06/11 06:33:07;;;;;;;15.73;10.43;;;;;;;18.13;99.28;94372.94;5074409;28;20204;-84
2022/06/11 06:35:33;;;;;;;14.15;9.77;;;;;;;18.08;99.80;94353.22;5055281;28;20265;-84
2022/06/11 06:37:59;;;;;;;11.38;7.18;;;;;;;18.53;99.72;94418.16;5056193;28;20202;-83
2022/06/11 06:40:25;;;;;;;10.70;8.15;;;;;;;18.51;98.84;94416.84;5079603;28;20247;-84
2022/06/11 06:42:51;;;;;;;10.82;7.43;;;;;;;18.22;98.15;94374.00;5076117;28;20675;-83
2022/06/11 06:45:16;;;;;;;12.25;8.88;;;;;;;18.57;98.13;94431.78;5075879;28;20166;-83
2022/06/11 06:47:42;;;;;;;12.07;7.30;;;;;;;18.61;97.13;94430.16;5057754;28;20645;-82
2022/06/11 06:50:08;;;;;;;6.88;5.28;;;;;;;18.58;97.26;94430.72;5076078;28;20252;-82
2022/06/11 06:52:34;;;;;;;9.55;6.47;;;;;;;18.53;97.63;94417.34;5075893;28;20173;-81
2022/06/11 06:55:00;;;;;;;12.73;8.95;;;;;;;18.55;97.93;94418.69;5075781;28;20159;-81
2022/06/11 06:57:25;;;;;;;20.25;13.27;;;;;;;18.67;98.93;94429.91;5075642;28;20170;-81
2022/06/11 06:59:51;;;;;;;10.50;7.72;;;;;;;18.72;99.66;94437.06;5069040;28;20252;-80
2022/06/11 07:02:17;;;;;;;8.85;6.97;;;;;;;18.73;98.70;94430.66;5074607;28;20198;-81
2022/06/11 07:04:42;;;;;;;10.73;7.53;;;;;;;18.82;97.52;94434.38;5056884;28;20284;-81
2022/06/11 07:07:13;;;;;;;10.88;7.70;;;;;;;18.62;96.34;94434.44;5054263;28;20265;-81
2022/06/11 07:09:39;;;;;;;8.13;6.07;;;;;;;18.39;96.40;94387.81;5073933;28;20182;-82
2022/06/11 07:12:04;;;;;;;8.25;6.55;;;;;;;18.76;97.24;94420.28;5039996;28;20194;-81
2022/06/11 07:14:30;;;;;;;11.20;7.70;;;;;;;18.99;98.03;94423.38;5056874;28;20270;-83
2022/06/11 07:16:58;;;;;;;8.15;5.93;;;;;;;19.18;97.04;94432.38;5075176;28;20181;-81
2022/06/11 07:19:32;;;;;;;8.43;5.90;;;;;;;19.16;97.66;94395.25;5075409;28;20222;-81
2022/06/11 07:22:09;;;;;;;9.43;6.38;;;;;;;19.41;97.40;94390.84;5075064;28;20680;-81
2022/06/11 07:24:37;;;;;;;7.93;5.80;;;;;;;19.81;93.22;94448.56;5074604;28;20209;-81
2022/06/11 07:27:09;;;;;;;6.43;4.30;;;;;;;19.82;90.27;94460.84;5074927;28;20228;-82
2022/06/11 07:29:47;;;;;;;4.47;3.90;;;;;;;19.62;87.60;94456.44;5053108;28;20175;-81
2022/06/11 07:32:16;;;;;;;5.43;4.22;;;;;;;19.45;90.04;94443.44;5074387;28;20664;-80
2022/06/11 07:34:42;;;;;;;5.55;3.80;;;;;;;19.36;88.94;94458.44;5063580;28;20179;-83
2022/06/11 07:37:07;;;;;;;8.32;4.15;;;;;;;19.23;89.14;94454.47;5074211;28;20732;-79
2022/06/11 07:39:34;;;;;;;5.32;3.72;;;;;;;19.34;91.14;94457.09;5071016;28;20205;-80
2022/06/11 07:41:59;;;;;;;5.80;3.88;;;;;;;19.26;88.31;94447.00;5074047;28;20178;-79
2022/06/11 07:44:25;;;;;;;3.63;3.33;;;;;;;19.01;88.98;94410.56;5073977;28;20188;-81
2022/06/11 07:46:51;;;;;;;4.53;4.03;;;;;;;19.40;89.52;94469.34;5074198;28;20201;-81
2022/06/11 07:49:17;;;;;;;7.00;4.13;;;;;;;19.19;89.67;94433.97;5055937;28;20216;-81
2022/06/11 07:51:43;;;;;;;10.80;4.45;;;;;;;19.45;90.09;94447.97;5054363;28;20170;-81
2022/06/11 07:54:09;;;;;;;6.93;5.10;;;;;;;19.11;90.23;94381.16;5073326;28;20268;-80
2022/06/11 07:56:36;;;;;;;6.47;4.75;;;;;;;19.85;90.71;94465.63;5074279;28;20170;-80
2022/06/11 07:59:01;;;;;;;7.82;3.88;;;;;;;19.98;86.85;94471.13;5074019;28;20166;-81
2022/06/11 08:01:27;;;;;;;4.95;3.95;;;;;;;19.79;88.22;94424.81;5074111;28;20721;-80
2022/06/11 08:03:52;;;;;;;6.30;3.72;;;;;;;19.96;88.32;94429.75;5073444;28;20225;-80
2022/06/11 08:06:18;;;;;;;6.07;4.15;;;;;;;20.49;90.14;94469.97;5074108;28;20562;-80
2022/06/11 08:08:45;;;;;;;6.20;3.88;;;;;;;20.33;86.06;94413.91;5074635;28;20179;-81
2022/06/11 08:11:11;;;;;;;5.55;3.25;;;;;;;20.77;83.56;94471.81;5071914;28;20182;-81
2022/06/11 08:13:36;;;;;;;5.32;3.50;;;;;;;20.87;83.31;94482.41;5064865;28;20631;-81
2022/06/11 08:16:02;;;;;;;6.55;4.05;;;;;;;20.84;83.39;94458.13;5074569;28;20540;-80
2022/06/11 08:18:30;;;;;;;5.97;3.65;;;;;;;20.98;82.15;94477.75;5071971;28;20265;-80
2022/06/11 08:20:56;;;;;;;12.82;8.27;;;;;;;20.91;83.63;94478.09;5072796;28;20198;-80
2022/06/11 08:23:22;;;;;;;7.90;4.20;;;;;;;20.97;85.40;94478.81;5067089;28;20210;-80
2022/06/11 08:25:49;;;;;;;6.32;4.47;;;;;;;20.96;83.24;94474.56;5068620;28;20229;-80
2022/06/11 08:28:16;;;;;;;5.88;4.18;;;;;;;20.97;82.88;94484.19;5072067;28;20205;-80
2022/06/11 08:30:43;;;;;;;4.93;4.40;;;;;;;21.06;83.87;94477.13;5065523;28;20576;-81
2022/06/11 08:33:09;;;;;;;5.28;3.58;;;;;;;21.27;79.54;94491.91;5051037;28;20748;-81
2022/06/11 08:35:35;;;;;;;3.90;3.50;;;;;;;21.48;82.08;94476.34;5061541;28;20183;-81
2022/06/11 08:38:04;;;;;;;4.70;3.15;;;;;;;21.75;78.78;94492.59;5065561;28;20178;-80
2022/06/11 08:40:36;;;;;;;4.22;3.25;;;;;;;21.91;76.22;94479.78;5074377;28;20197;-80
2022/06/11 08:43:14;;;;;;;4.60;3.83;;;;;;;22.11;79.78;94474.16;5078919;28;20178;-80
2022/06/11 08:46:01;;;;;;;6.93;4.07;;;;;;;22.53;82.76;94470.50;5076441;28;20186;-80
2022/06/11 08:48:43;;;;;;;4.15;3.35;;;;;;;22.76;76.42;94474.16;5070028;28;20649;-80
2022/06/11 08:51:37;;;;;;;4.28;3.50;;;;;;;22.89;75.32;94470.69;5061961;28;20178;-81
2022/06/11 08:54:07;;;;;;;6.53;4.72;;;;;;;23.17;78.09;94471.50;5068499;28;20198;-81
2022/06/11 08:56:32;;;;;;;4.72;3.80;;;;;;;23.27;74.21;94470.47;5053480;28;20182;-81
2022/06/11 08:59:12;;;;;;;6.15;3.88;;;;;;;23.17;73.18;94471.50;5072020;28;20192;-81
2022/06/11 09:02:12;;;;;;;4.57;3.25;;;;;;;23.00;72.67;94457.88;5046729;28;20577;-82
2022/06/11 09:05:01;;;;;;;6.25;4.38;;;;;;;23.09;76.72;94460.66;5050360;28;20469;-81
2022/06/11 09:07:57;;;;;;;4.85;3.67;;;;;;;23.35;72.43;94453.69;5067582;28;20182;-81
2022/06/11 09:10:40;;;;;;;6.05;4.18;;;;;;;23.81;75.00;94453.50;5065787;28;20194;-81
2022/06/11 09:13:20;;;;;;;4.25;3.70;;;;;;;23.97;70.48;94462.03;5067842;28;20190;-81
2022/06/11 09:16:04;;;;;;;3.70;3.30;;;;;;;23.87;68.81;94446.16;5065409;28;20182;-80
2022/06/11 09:18:48;;;;;;;8.60;4.20;;;;;;;23.89;69.78;94452.78;5070564;28;20197;-81
2022/06/11 09:21:32;;;;;;;3.13;2.80;;;;;;;23.85;70.71;94467.94;5067321;28;20613;-82
2022/06/11 09:24:16;;;;;;;3.30;2.85;;;;;;;23.88;69.75;94463.84;5066738;28;20175;-80
2022/06/11 09:27:05;;;;;;;4.38;3.10;;;;;;;23.89;69.86;94463.53;5069920;28;20178;-81
2022/06/11 09:29:51;;;;;;;5.63;3.80;;;;;;;23.90;71.34;94453.59;5070951;28;20641;-80
2022/06/11 09:32:39;;;;;;;3.63;2.92;;;;;;;23.93;69.12;94463.75;5066799;28;20182;-81
2022/06/11 09:35:12;;;;;;;2.97;2.65;;;;;;;23.92;68.81;94459.47;5069313;28;20166;-80
2022/06/11 09:37:55;;;;;;;3.35;3.00;;;;;;;24.10;70.50;94463.88;5063972;28;20281;-80
2022/06/11 09:40:39;;;;;;;4.15;3.20;;;;;;;24.18;71.42;94459.66;5066373;28;20225;-79
2022/06/11 09:43:18;;;;;;;4.30;3.33;;;;;;;24.22;69.68;94463.34;5066279;28;20186;-79
2022/06/11 09:46:06;;;;;;;6.22;2.83;;;;;;;24.37;68.39;94465.69;5067529;28;20277;-81
2022/06/11 09:48:45;;;;;;;4.43;3.33;;;;;;;24.42;67.41;94460.16;5069878;28;20178;-82
2022/06/11 09:51:38;;;;;;;3.13;2.05;;;;;;;24.47;64.75;94494.25;5067867;28;20174;-82
2022/06/11 09:54:16;;;;;;;3.17;2.50;;;;;;;24.47;64.06;94484.28;5072333;28;20202;-80
2022/06/11 09:56:48;;;;;;;2.90;2.40;;;;;;;24.44;66.42;94471.44;5069800;28;20708;-81
2022/06/11 09:59:33;;;;;;;3.78;2.53;;;;;;;24.33;66.25;94473.56;5063918;28;20199;-81
2022/06/11 10:02:07;;;;;;;5.82;3.15;;;;;;;24.33;68.41;94464.69;5052906;28;20183;-81
2022/06/11 10:04:40;;;;;;;2.38;2.17;;;;;;;24.35;64.39;94478.66;5062379;28;20240;-81
2022/06/11 10:07:13;;;;;;;3.67;2.17;;;;;;;23.98;63.23;94480.56;5067871;28;20179;-80
2022/06/11 10:09:51;;;;;;;2.88;2.40;;;;;;;24.03;66.54;94469.69;5070401;28;20173;-81
2022/06/11 10:12:23;;;;;;;3.28;2.63;;;;;;;23.90;66.68;94461.66;5069431;28;20563;-80
2022/06/11 10:14:55;;;;;;;2.80;2.50;;;;;;;23.83;69.36;94461.28;5070046;28;20202;-80
2022/06/11 10:17:44;;;;;;;2.83;2.50;;;;;;;23.50;65.97;94441.84;5068959;28;20212;-80
2022/06/11 10:20:12;;;;;;;3.88;2.45;;;;;;;23.24;68.06;94458.47;5069626;28;20272;-80
2022/06/11 10:22:43;;;;;;;5.90;3.90;;;;;;;22.95;70.51;94466.03;5070851;28;20181;-80
2022/06/11 10:25:09;;;;;;;5.95;2.85;;;;;;;22.73;71.67;94461.31;5070825;28;20174;-80
2022/06/11 10:27:40;;;;;;;3.15;2.60;;;;;;;22.53;71.56;94478.56;5070419;28;20178;-80
2022/06/11 10:30:49;;;;;;;4.43;3.10;;;;;;;21.95;73.76;94475.44;5070926;28;20171;-80
2022/06/11 10:33:29;;;;;;;6.25;3.08;;;;;;;21.08;82.48;94462.38;5033456;28;20581;-80
2022/06/11 10:36:23;;;;;;;7.35;3.10;;;;;;;20.87;87.50;94482.41;5071673;28;20329;-79
2022/06/11 10:38:57;;;;;;;5.72;3.35;;;;;;;20.54;89.09;94486.75;5066280;28;20167;-78
2022/06/11 10:41:27;;;;;;;3.40;2.42;;;;;;;20.37;91.71;94490.91;5068575;28;20722;-79
2022/06/11 10:44:31;;;;;;;7.38;3.92;;;;;;;20.16;93.57;94491.03;5071361;28;20261;-79
2022/06/11 10:46:57;;;;;;;3.42;2.90;;;;;;;20.10;94.38;94492.16;5032723;28;20307;-79
2022/06/11 10:49:23;;;;;;;3.53;2.67;;;;;;;19.95;96.19;94469.03;5070454;28;20177;-79
2022/06/11 10:52:00;;;;;;;6.00;3.25;;;;;;;20.15;96.97;94502.81;5070559;28;20178;-79
2022/06/11 10:54:26;;;;;;;5.38;3.40;;;;;;;19.94;96.47;94490.69;5085753;28;20260;-79
2022/06/11 10:57:00;;;;;;;5.97;3.28;;;;;;;19.86;96.69;94493.94;5069975;28;20178;-79
2022/06/11 10:59:32;;;;;;;4.63;3.47;;;;;;;19.90;95.95;94506.47;5068024;28;20190;-79
2022/06/11 11:02:43;;;;;;;7.45;3.92;;;;;;;19.94;96.59;94504.03;5070312;28;20175;-79
2022/06/11 11:05:14;;;;;;;7.43;3.47;;;;;;;19.88;97.52;94508.63;5045738;28;20727;-79
2022/06/11 11:07:41;;;;;;;4.47;3.20;;;;;;;19.96;99.45;94497.34;5050430;28;20175;-79
2022/06/11 11:10:25;;;;;;;4.78;3.05;;;;;;;20.24;99.77;94505.69;5050410;28;20172;-79
2022/06/11 11:12:55;;;;;;;2.97;2.67;;;;;;;20.41;99.65;94500.00;5050616;28;20175;-78
2022/06/11 11:15:26;;;;;;;4.03;2.70;;;;;;;20.38;97.14;94477.28;5050953;28;20186;-79
2022/06/11 11:18:17;;;;;;;3.75;2.53;;;;;;;20.31;93.06;94471.44;5032789;28;20163;-79
2022/06/11 11:20:44;;;;;;;4.13;3.08;;;;;;;20.49;93.72;94502.06;5048622;28;20202;-79
2022/06/11 11:23:09;;;;;;;3.08;2.72;;;;;;;20.60;95.08;94509.69;5050957;28;20179;-79
2022/06/11 11:25:47;;;;;;;5.68;3.50;;;;;;;20.59;96.13;94510.75;5052090;28;20178;-79
2022/06/11 11:28:22;;;;;;;7.70;4.30;;;;;;;20.43;93.05;94503.97;5053811;28;20258;-79
2022/06/11 11:31:06;;;;;;;6.10;4.80;;;;;;;20.46;94.65;94481.22;5052015;28;20239;-78
2022/06/11 11:33:37;;;;;;;6.15;4.85;;;;;;;20.71;96.25;94483.66;5053814;28;20611;-78
2022/06/11 11:36:25;;;;;;;4.72;3.70;;;;;;;20.95;92.36;94500.53;5054403;28;20173;-79
2022/06/11 11:39:12;;;;;;;5.30;4.10;;;;;;;21.02;91.91;94492.13;5064133;28;20190;-78
2022/06/11 11:41:51;;;;;;;5.05;3.50;;;;;;;21.12;92.58;94494.72;5073855;28;20178;-79
2022/06/11 11:44:22;;;;;;;8.10;3.85;;;;;;;21.18;91.80;94490.94;5053804;28;20179;-78
2022/06/11 11:46:53;;;;;;;5.93;3.20;;;;;;;21.08;90.26;94475.75;5052993;28;20194;-80
2022/06/11 11:49:37;;;;;;;4.85;3.78;;;;;;;21.20;90.89;94490.63;5054022;28;20240;-78